createdAt,value
2022-08-02T00:00:58.497Z,100270.16
2022-08-02T00:03:26.530Z,100272.25
2022-08-02T00:05:54.420Z,100266.50
2022-08-02T00:08:22.665Z,100269.47
2022-08-02T00:10:50.799Z,100271.59
2022-08-02T00:13:18.491Z,100261.19
2022-08-02T00:15:46.152Z,100265.16
2022-08-02T00:18:13.983Z,100273.38
2022-08-02T00:20:41.666Z,100271.38
2022-08-02T00:23:09.307Z,100269.78
2022-08-02T00:25:37.179Z,100272.16
2022-08-02T00:28:27.264Z,100270.19
2022-08-02T00:30:57.973Z,100280.94
2022-08-02T00:34:27.293Z,100274.06
2022-08-02T00:36:14.785Z,100276.69
2022-08-02T00:38:42.462Z,100276.03
2022-08-02T00:41:15.135Z,100281.72
2022-08-02T00:43:44.100Z,100284.47
2022-08-02T00:46:11.720Z,100284.47
2022-08-02T00:48:42.998Z,100282.09
2022-08-02T00:51:12.521Z,100284.88
2022-08-02T00:53:40.688Z,100275.16
2022-08-02T00:56:08.910Z,100284.47
2022-08-02T00:58:37.580Z,100284.94
2022-08-02T01:01:05.384Z,100283.31
2022-08-02T01:03:33.120Z,100282.19
2022-08-02T01:06:16.187Z,100281.25
2022-08-02T01:08:44.545Z,100285.97
2022-08-02T01:11:12.758Z,100282.97
2022-08-02T01:13:40.672Z,100281.75
2022-08-02T01:16:19.074Z,100289.03
2022-08-02T01:18:54.314Z,100283.19
2022-08-02T01:22:13.074Z,100287.06
2022-08-02T01:24:59.542Z,100282.72
2022-08-02T01:27:36.002Z,100292.63
2022-08-02T01:30:07.097Z,100293.94
2022-08-02T01:32:43.517Z,100312.28
2022-08-02T01:35:21.516Z,100310.56
2022-08-02T01:38:29.427Z,100307.16
2022-08-02T01:41:01.057Z,100307.06
2022-08-02T01:43:30.547Z,100311.13
2022-08-02T01:46:00.530Z,100310.56
2022-08-02T01:48:31.733Z,100313.41
2022-08-02T01:51:02.593Z,100307.34
2022-08-02T01:53:31.935Z,100305.72
2022-08-02T01:56:01.289Z,100292.78
2022-08-02T01:58:33.830Z,100299.50
2022-08-02T02:01:03.131Z,100296.97
2022-08-02T02:03:34.260Z,100297.63
2022-08-02T02:06:05.526Z,100299.03
2022-08-02T02:08:39.909Z,100302.06
2022-08-02T02:12:06.258Z,100297.53
2022-08-02T02:14:00.762Z,100306.97
2022-08-02T02:16:32.058Z,100294.69
2022-08-02T02:19:03.243Z,100299.06
2022-08-02T02:21:31.542Z,100299.44
2022-08-02T02:23:59.968Z,100299.22
2022-08-02T02:26:31.366Z,100305.06
2022-08-02T02:29:04.475Z,100302.25
2022-08-02T02:31:37.864Z,100306.78
2022-08-02T02:34:06.903Z,100308.75
2022-08-02T02:36:36.994Z,100306.38
2022-08-02T02:39:13.090Z,100306.38
2022-08-02T02:41:43.526Z,100313.56
2022-08-02T02:44:16.709Z,100306.56
2022-08-02T02:46:45.168Z,100310.28
2022-08-02T02:49:14.569Z,100315.75
2022-08-02T02:51:43.952Z,100318.47
2022-08-02T02:54:32.617Z,100317.75
2022-08-02T02:57:02.583Z,100318.00
2022-08-02T02:59:31.843Z,100316.50
2022-08-02T03:02:00.113Z,100316.81
2022-08-02T03:04:55.444Z,100321.34
2022-08-02T03:07:17.484Z,100328.31
2022-08-02T03:09:47.327Z,100323.66
2022-08-02T03:12:27.166Z,100332.28
2022-08-02T03:15:08.385Z,100331.88
2022-08-02T03:17:44.256Z,100332.63
2022-08-02T03:20:14.850Z,100334.31
2022-08-02T03:22:44.006Z,100329.59
2022-08-02T03:25:13.154Z,100326.84
2022-08-02T03:27:41.041Z,100331.44
2022-08-02T03:30:11.669Z,100327.72
2022-08-02T03:32:41.501Z,100323.28
2022-08-02T03:35:12.688Z,100329.03
2022-08-02T03:37:41.607Z,100320.53
2022-08-02T03:40:11.565Z,100327.00
2022-08-02T03:42:40.547Z,100329.72
2022-08-02T03:45:12.616Z,100326.59
2022-08-02T03:47:41.806Z,100326.00
2022-08-02T03:50:13.560Z,100333.75
2022-08-02T03:52:45.555Z,100333.78
2022-08-02T03:55:14.398Z,100329.63
2022-08-02T03:57:42.921Z,100334.91
2022-08-02T04:00:17.270Z,100340.00
2022-08-02T04:02:45.218Z,100335.41
2022-08-02T04:05:13.444Z,100340.22
2022-08-02T04:08:33.215Z,100346.09
2022-08-02T04:10:28.917Z,100355.31
2022-08-02T04:12:56.993Z,100354.00
2022-08-02T04:15:25.036Z,100361.19
2022-08-02T04:17:59.553Z,100362.31
2022-08-02T04:20:33.008Z,100359.84
2022-08-02T04:23:10.062Z,100353.63
2022-08-02T04:25:40.471Z,100365.72
2022-08-02T04:28:17.665Z,100365.38
2022-08-02T04:30:51.293Z,100369.88
2022-08-02T04:33:19.556Z,100371.91
2022-08-02T04:35:47.385Z,100381.47
2022-08-02T04:38:16.361Z,100380.47
2022-08-02T04:40:55.515Z,100387.97
2022-08-02T04:43:23.717Z,100398.81
2022-08-02T04:45:54.020Z,100401.63
2022-08-02T04:48:22.606Z,100391.59
2022-08-02T04:50:51.010Z,100395.31
2022-08-02T04:53:19.096Z,100403.59
2022-08-02T04:55:46.980Z,100403.59
2022-08-02T04:58:38.672Z,100406.31
2022-08-02T05:01:03.239Z,100417.50
2022-08-02T05:03:30.978Z,100415.28
2022-08-02T05:06:00.610Z,100416.84
2022-08-02T05:08:28.539Z,100417.69
2022-08-02T05:10:56.155Z,100425.88
2022-08-02T05:13:23.852Z,100428.66
2022-08-02T05:15:51.654Z,100427.16
2022-08-02T05:18:19.383Z,100430.78
2022-08-02T05:20:47.063Z,100428.44
2022-08-02T05:23:14.913Z,100433.31
2022-08-02T05:25:42.653Z,100441.72
2022-08-02T05:28:11.809Z,100441.81
2022-08-02T05:30:40.397Z,100446.03
2022-08-02T05:33:08.421Z,100450.25
2022-08-02T05:35:36.150Z,100453.41
2022-08-02T05:38:04.096Z,100454.84
2022-08-02T05:40:31.729Z,100461.69
2022-08-02T05:42:59.345Z,100454.53
2022-08-02T05:45:27.468Z,100466.63
2022-08-02T05:47:55.049Z,100469.09
2022-08-02T05:50:24.425Z,100461.16
2022-08-02T05:53:05.204Z,100463.66
2022-08-02T05:55:42.794Z,100468.56
2022-08-02T05:58:44.058Z,100466.66
2022-08-02T06:01:15.845Z,100473.56
2022-08-02T06:03:52.206Z,100470.53
2022-08-02T06:06:25.212Z,100478.81
2022-08-02T06:09:00.938Z,100474.53
2022-08-02T06:11:43.158Z,100471.00
2022-08-02T06:14:34.265Z,100468.78
2022-08-02T06:17:05.692Z,100473.59
2022-08-02T06:19:46.822Z,100482.91
2022-08-02T06:22:40.661Z,100484.47
2022-08-02T06:25:47.871Z,100482.97
2022-08-02T06:27:57.138Z,100476.97
2022-08-02T06:30:25.131Z,100485.06
2022-08-02T06:32:52.992Z,100487.44
2022-08-02T06:35:20.925Z,100491.06
2022-08-02T06:37:58.388Z,100486.00
2022-08-02T06:40:29.767Z,100490.88
2022-08-02T06:43:00.338Z,100495.16
2022-08-02T06:45:28.022Z,100492.09
2022-08-02T06:47:55.802Z,100489.00
2022-08-02T06:50:23.837Z,100487.44
2022-08-02T06:52:51.736Z,100500.53
2022-08-02T06:55:19.590Z,100486.06
2022-08-02T06:57:47.462Z,100495.84
2022-08-02T07:00:15.431Z,100501.59
2022-08-02T07:02:43.270Z,100506.97
2022-08-02T07:05:11.264Z,100504.50
2022-08-02T07:07:39.067Z,100501.78
2022-08-02T07:10:06.932Z,100513.06
2022-08-02T07:12:35.502Z,100511.28
2022-08-02T07:15:06.316Z,100502.44
2022-08-02T07:17:35.066Z,100506.94
2022-08-02T07:20:03.761Z,100509.34
2022-08-02T07:22:31.503Z,100514.44
2022-08-02T07:25:00.710Z,100505.94
2022-08-02T07:27:30.124Z,100518.56
2022-08-02T07:29:58.241Z,100508.88
2022-08-02T07:32:30.890Z,100516.22
2022-08-02T07:34:59.883Z,100513.78
2022-08-02T07:37:54.090Z,100508.13
2022-08-02T07:40:22.807Z,100513.81
2022-08-02T07:42:57.930Z,100512.13
2022-08-02T07:45:32.361Z,100507.16
2022-08-02T07:48:00.217Z,100509.44
2022-08-02T07:50:28.544Z,100508.75
2022-08-02T07:52:57.765Z,100509.06
2022-08-02T07:55:40.082Z,100501.00
2022-08-02T07:58:13.647Z,100506.34
2022-08-02T08:00:44.912Z,100500.72
2022-08-02T08:03:13.503Z,100510.16
2022-08-02T08:05:41.309Z,100506.25
2022-08-02T08:08:13.618Z,100512.91
2022-08-02T08:10:44.862Z,100508.69
2022-08-02T08:13:12.620Z,100505.34
2022-08-02T08:15:40.255Z,100506.25
2022-08-02T08:18:08.112Z,100512.34
2022-08-02T08:20:37.993Z,100505.91
2022-08-02T08:23:05.670Z,100508.31
2022-08-02T08:25:39.887Z,100515.31
2022-08-02T08:28:09.437Z,100510.06
2022-08-02T08:30:37.297Z,100513.06
2022-08-02T08:33:05.248Z,100510.50
2022-08-02T08:35:32.819Z,100507.63
2022-08-02T08:38:05.469Z,100498.38
2022-08-02T08:40:35.541Z,100498.47
2022-08-02T08:43:04.322Z,100499.13
2022-08-02T08:45:31.999Z,100499.94
2022-08-02T08:48:15.980Z,100500.78
2022-08-02T08:51:05.703Z,100499.22
2022-08-02T08:53:43.981Z,100494.72
2022-08-02T08:56:16.347Z,100497.53
2022-08-02T08:58:47.559Z,100499.13
2022-08-02T09:01:16.944Z,100495.59
2022-08-02T09:03:45.777Z,100498.88
2022-08-02T09:06:13.499Z,100494.84
2022-08-02T09:08:41.406Z,100501.25
2022-08-02T09:11:23.148Z,100491.97
2022-08-02T09:14:01.192Z,100497.16
2022-08-02T09:16:43.754Z,100488.78
2022-08-02T09:19:19.075Z,100492.91
2022-08-02T09:21:48.858Z,100493.13
2022-08-02T09:24:22.834Z,100491.41
2022-08-02T09:26:51.354Z,100494.00
2022-08-02T09:29:22.420Z,100490.03
2022-08-02T09:31:51.045Z,100497.91
2022-08-02T09:34:19.705Z,100500.53
2022-08-02T09:36:48.470Z,100501.34
2022-08-02T09:39:23.927Z,100497.78
2022-08-02T09:41:51.840Z,100497.91
2022-08-02T09:44:20.559Z,100491.03
2022-08-02T09:46:48.248Z,100490.91
2022-08-02T09:49:18.915Z,100486.41
2022-08-02T09:51:49.695Z,100491.22
2022-08-02T09:54:25.765Z,100488.31
2022-08-02T09:56:59.099Z,100482.75
2022-08-02T09:59:28.374Z,100493.59
2022-08-02T10:02:01.781Z,100479.84
2022-08-02T10:04:34.523Z,100482.81
2022-08-02T10:07:22.250Z,100485.94
2022-08-02T10:09:52.051Z,100480.13
2022-08-02T10:12:23.034Z,100476.97
2022-08-02T10:14:54.196Z,100476.16
2022-08-02T10:17:21.843Z,100475.75
2022-08-02T10:20:02.288Z,100471.28
2022-08-02T10:22:36.325Z,100480.75
2022-08-02T10:25:06.544Z,100479.25
2022-08-02T10:27:55.484Z,100471.53
2022-08-02T10:30:26.585Z,100470.06
2022-08-02T10:32:56.223Z,100460.16
2022-08-02T10:35:26.661Z,100474.31
2022-08-02T10:38:04.014Z,100465.19
2022-08-02T10:40:53.482Z,100473.38
2022-08-02T10:43:36.474Z,100472.91
2022-08-02T10:46:24.461Z,100467.56
2022-08-02T10:52:06.033Z,100473.59
2022-08-02T10:54:33.751Z,100473.63
2022-08-02T10:57:02.497Z,100473.81
2022-08-02T10:59:36.826Z,100469.28
2022-08-02T11:02:07.130Z,100474.59
2022-08-02T11:04:37.271Z,100467.44
2022-08-02T11:07:10.821Z,100471.22
2022-08-02T11:09:39.151Z,100475.66
2022-08-02T11:12:13.454Z,100472.63
2022-08-02T11:14:44.290Z,100468.44
2022-08-02T11:17:16.602Z,100474.31
2022-08-02T11:20:12.497Z,100467.59
2022-08-02T11:22:41.446Z,100460.50
2022-08-02T11:25:24.642Z,100460.50
2022-08-02T11:27:59.635Z,100464.53
2022-08-02T11:30:27.996Z,100468.25
2022-08-02T11:32:59.955Z,100473.84
2022-08-02T11:35:38.887Z,100471.91
2022-08-02T11:38:20.421Z,100469.00
2022-08-02T11:40:49.479Z,100468.78
2022-08-02T11:43:21.999Z,100466.34
2022-08-02T11:45:52.468Z,100465.06
2022-08-02T11:48:33.848Z,100465.56
2022-08-02T11:51:10.529Z,100472.84
2022-08-02T11:53:50.872Z,100466.88
2022-08-02T11:56:32.546Z,100471.97
2022-08-02T11:59:07.357Z,100477.38
2022-08-02T12:01:45.633Z,100479.84
2022-08-02T12:04:19.428Z,100476.63
2022-08-02T12:06:58.776Z,100466.88
2022-08-02T12:09:28.706Z,100471.31
2022-08-02T12:11:58.123Z,100472.34
2022-08-02T12:14:28.755Z,100463.88
2022-08-02T12:17:15.625Z,100461.84
2022-08-02T12:19:44.365Z,100462.22
2022-08-02T12:22:27.464Z,100460.75
2022-08-02T12:24:57.674Z,100464.13
2022-08-02T12:27:30.169Z,100453.34
2022-08-02T12:30:06.821Z,100450.69
2022-08-02T12:32:34.829Z,100455.78
2022-08-02T12:35:26.039Z,100460.25
2022-08-02T12:37:54.734Z,100459.56
2022-08-02T12:40:32.292Z,100466.25
2022-08-02T12:43:01.288Z,100468.59
2022-08-02T12:45:38.308Z,100465.25
2022-08-02T12:48:09.256Z,100468.47
2022-08-02T12:50:37.912Z,100464.47
2022-08-02T12:53:17.622Z,100463.53
2022-08-02T12:55:59.911Z,100468.25
2022-08-02T12:58:46.041Z,100462.19
2022-08-02T13:01:25.576Z,100466.25
2022-08-02T13:04:10.120Z,100463.06
2022-08-02T13:06:44.450Z,100464.34
2022-08-02T13:09:15.699Z,100459.44
2022-08-02T13:11:44.387Z,100462.81
2022-08-02T13:14:13.882Z,100465.53
2022-08-02T13:16:43.712Z,100459.16
2022-08-02T13:19:13.166Z,100466.56
2022-08-02T13:22:11.163Z,100467.94
2022-08-02T13:24:39.990Z,100468.25
2022-08-02T13:27:16.814Z,100466.06
2022-08-02T13:29:44.743Z,100464.56
2022-08-02T13:32:12.760Z,100474.16
2022-08-02T13:34:40.589Z,100469.94
2022-08-02T13:37:08.435Z,100464.22
2022-08-02T13:39:36.114Z,100473.78
2022-08-02T13:42:04.071Z,100475.28
2022-08-02T13:44:34.899Z,100463.66
2022-08-02T13:47:03.065Z,100464.16
2022-08-02T13:49:49.657Z,100461.81
2022-08-02T13:52:18.824Z,100462.84
2022-08-02T13:54:46.547Z,100471.06
2022-08-02T13:57:14.181Z,100475.22
2022-08-02T13:59:57.199Z,100469.97
2022-08-02T14:02:30.461Z,100462.13
2022-08-02T14:04:58.431Z,100464.75
2022-08-02T14:07:26.157Z,100463.50
2022-08-02T14:09:53.858Z,100459.13
2022-08-02T14:12:21.701Z,100461.81
2022-08-02T14:14:49.522Z,100456.69
2022-08-02T14:17:18.867Z,100452.88
2022-08-02T14:19:47.091Z,100456.16
2022-08-02T14:22:14.942Z,100455.63
2022-08-02T14:24:42.606Z,100458.63
2022-08-02T14:27:10.854Z,100459.84
2022-08-02T14:29:39.086Z,100457.13
2022-08-02T14:32:07.045Z,100453.59
2022-08-02T14:34:34.811Z,100454.44
2022-08-02T14:37:02.477Z,100454.44
2022-08-02T14:39:43.032Z,100451.00
2022-08-02T14:42:18.393Z,100454.38
2022-08-02T14:44:46.079Z,100451.31
2022-08-02T14:47:13.802Z,100455.91
2022-08-02T14:49:44.152Z,100452.38
2022-08-02T14:52:14.761Z,100453.44
2022-08-02T14:54:43.214Z,100449.00
2022-08-02T14:57:11.411Z,100453.97
2022-08-02T14:59:42.304Z,100450.53
2022-08-02T15:02:11.906Z,100447.16
2022-08-02T15:04:42.839Z,100457.31
2022-08-02T15:07:12.132Z,100452.72
2022-08-02T15:09:40.344Z,100458.88
2022-08-02T15:12:09.552Z,100452.53
2022-08-02T15:14:38.429Z,100449.78
2022-08-02T15:17:07.124Z,100447.41
2022-08-02T15:19:56.177Z,100455.03
2022-08-02T15:22:22.995Z,100456.22
2022-08-02T15:24:50.956Z,100451.53
2022-08-02T15:27:18.885Z,100458.31
2022-08-02T15:29:47.382Z,100457.09
2022-08-02T15:32:18.909Z,100453.94
2022-08-02T15:34:47.206Z,100460.81
2022-08-02T15:37:15.013Z,100461.16
2022-08-02T15:39:42.692Z,100461.78
2022-08-02T15:42:10.734Z,100453.03
2022-08-02T15:44:38.863Z,100462.94
2022-08-02T15:47:07.587Z,100462.09
2022-08-02T15:49:39.311Z,100470.53
2022-08-02T15:52:09.262Z,100463.16
2022-08-02T15:54:36.896Z,100457.94
2022-08-02T15:57:04.713Z,100461.22
2022-08-02T15:59:32.655Z,100463.03
2022-08-02T16:02:00.344Z,100460.88
2022-08-02T16:04:28.219Z,100458.50
2022-08-02T16:06:56.094Z,100465.81
2022-08-02T16:09:23.751Z,100467.84
2022-08-02T16:11:51.415Z,100466.34
2022-08-02T16:14:19.204Z,100470.09
2022-08-02T16:16:46.864Z,100452.81
2022-08-02T16:19:45.822Z,100475.44
2022-08-02T16:22:03.091Z,100464.97
2022-08-02T16:24:30.883Z,100466.97
2022-08-02T16:26:58.861Z,100475.72
2022-08-02T16:29:26.871Z,100473.03
2022-08-02T16:32:01.094Z,100477.00
2022-08-02T16:34:44.829Z,100473.63
2022-08-02T16:37:16.789Z,100478.66
2022-08-02T16:39:44.616Z,100476.09
2022-08-02T16:42:12.269Z,100475.84
2022-08-02T16:44:53.579Z,100481.00
2022-08-02T16:47:43.332Z,100477.97
2022-08-02T16:50:11.418Z,100480.53
2022-08-02T16:52:39.637Z,100476.00
2022-08-02T16:55:10.156Z,100486.03
2022-08-02T16:57:45.453Z,100476.06
2022-08-02T17:00:18.523Z,100477.81
2022-08-02T17:02:46.903Z,100476.81
2022-08-02T17:05:15.028Z,100484.34
2022-08-02T17:08:16.386Z,100488.72
2022-08-02T17:10:34.425Z,100484.34
2022-08-02T17:13:11.140Z,100485.25
2022-08-02T17:16:08.353Z,100490.22
2022-08-02T17:18:29.314Z,100492.22
2022-08-02T17:20:57.730Z,100490.88
2022-08-02T17:23:47.116Z,100492.56
2022-08-02T17:26:13.715Z,100491.03
2022-08-02T17:29:07.062Z,100498.94
2022-08-02T17:31:37.314Z,100494.84
2022-08-02T17:34:11.738Z,100495.56
2022-08-02T17:36:39.834Z,100497.97
2022-08-02T17:39:08.025Z,100497.66
2022-08-02T17:41:39.801Z,100500.03
2022-08-02T17:44:37.608Z,100505.81
2022-08-02T17:47:08.778Z,100500.44
2022-08-02T17:49:44.443Z,100508.56
2022-08-02T17:52:50.913Z,100505.81
2022-08-02T17:55:06.247Z,100507.56
2022-08-02T17:57:56.050Z,100512.72
2022-08-02T18:00:21.859Z,100510.63
2022-08-02T18:02:50.575Z,100506.69
2022-08-02T18:05:40.123Z,100514.47
2022-08-02T18:08:22.719Z,100517.09
2022-08-02T18:10:53.390Z,100523.00
2022-08-02T18:13:21.359Z,100519.66
2022-08-02T18:15:52.452Z,100516.25
2022-08-02T18:18:29.404Z,100524.41
2022-08-02T18:21:15.640Z,100530.16
2022-08-02T18:23:48.653Z,100529.41
2022-08-02T18:26:20.834Z,100534.88
2022-08-02T18:28:49.176Z,100534.97
2022-08-02T18:31:22.228Z,100534.84
2022-08-02T18:33:54.494Z,100538.81
2022-08-02T18:36:29.582Z,100535.66
2022-08-02T18:38:58.192Z,100542.88
2022-08-02T18:41:25.977Z,100534.38
2022-08-02T18:43:56.482Z,100542.25
2022-08-02T18:46:26.559Z,100551.91
2022-08-02T18:48:58.258Z,100556.22
2022-08-02T18:51:36.759Z,100551.41
2022-08-02T18:54:05.242Z,100554.63
2022-08-02T18:56:32.951Z,100564.84
2022-08-02T18:59:07.571Z,100572.78
2022-08-02T19:01:44.916Z,100561.34
2022-08-02T19:04:26.960Z,100563.69
2022-08-02T19:06:56.678Z,100569.44
2022-08-02T19:09:31.789Z,100570.75
2022-08-02T19:11:59.460Z,100567.53
2022-08-02T19:14:28.866Z,100565.97
2022-08-02T19:17:00.479Z,100571.59
2022-08-02T19:19:44.287Z,100572.44
2022-08-02T19:22:26.522Z,100574.38
2022-08-02T19:24:59.938Z,100572.88
2022-08-02T19:27:32.533Z,100576.50
2022-08-02T19:30:04.388Z,100576.50
2022-08-02T19:32:41.830Z,100572.03
2022-08-02T19:35:30.542Z,100574.78
2022-08-02T19:38:08.558Z,100572.81
2022-08-02T19:40:39.949Z,100572.69
2022-08-02T19:44:24.508Z,100570.84
2022-08-02T19:45:57.389Z,100570.91
2022-08-02T19:48:27.061Z,100568.16
2022-08-02T19:50:59.476Z,100570.44
2022-08-02T19:53:47.653Z,100566.09
2022-08-02T19:56:25.673Z,100566.91
2022-08-02T19:58:55.715Z,100556.38
2022-08-02T20:01:36.829Z,100566.22
2022-08-02T20:04:13.532Z,100563.03
2022-08-02T20:06:45.048Z,100565.41
2022-08-02T20:09:21.009Z,100568.09
2022-08-02T20:11:54.517Z,100569.34
2022-08-02T20:14:27.434Z,100568.06
2022-08-02T20:16:56.840Z,100582.59
2022-08-02T20:19:25.323Z,100573.03
2022-08-02T20:21:59.796Z,100570.78
2022-08-02T20:24:29.547Z,100574.75
2022-08-02T20:26:59.473Z,100568.59
2022-08-02T20:29:43.114Z,100574.69
2022-08-02T20:32:22.392Z,100576.94
2022-08-02T20:34:50.933Z,100577.31
2022-08-02T20:37:59.722Z,100579.63
2022-08-02T20:40:10.199Z,100590.75
2022-08-02T20:42:47.634Z,100577.50
2022-08-02T20:45:16.434Z,100586.88
2022-08-02T20:47:45.908Z,100585.78
2022-08-02T20:50:37.824Z,100580.00
2022-08-02T20:53:06.487Z,100591.34
2022-08-02T20:55:35.816Z,100587.94
2022-08-02T20:58:04.637Z,100588.13
2022-08-02T21:00:33.398Z,100588.88
2022-08-02T21:03:02.652Z,100589.66
2022-08-02T21:05:54.084Z,100589.19
2022-08-02T21:08:21.614Z,100592.28
2022-08-02T21:10:52.686Z,100582.56
2022-08-02T21:13:22.345Z,100590.59
2022-08-02T21:15:51.671Z,100590.97
2022-08-02T21:18:21.895Z,100599.09
2022-08-02T21:21:00.390Z,100594.75
2022-08-02T21:23:28.743Z,100593.03
2022-08-02T21:25:59.017Z,100587.75
2022-08-02T21:28:35.099Z,100591.34
2022-08-02T21:31:15.488Z,100587.75
2022-08-02T21:33:56.790Z,100596.63
2022-08-02T21:36:30.514Z,100591.16
2022-08-02T21:39:05.934Z,100595.09
2022-08-02T21:41:46.107Z,100594.34
2022-08-02T21:47:04.306Z,100600.88
2022-08-02T21:50:08.771Z,100597.53
2022-08-02T21:52:25.265Z,100598.03
2022-08-02T21:54:55.783Z,100596.50
2022-08-02T21:57:24.521Z,100604.72
2022-08-02T21:59:55.537Z,100605.47
2022-08-02T22:02:29.452Z,100601.88
2022-08-02T22:04:58.863Z,100612.81
2022-08-02T22:07:27.354Z,100609.16
2022-08-02T22:09:55.521Z,100605.34
2022-08-02T22:12:26.404Z,100602.41
2022-08-02T22:14:56.313Z,100605.31
2022-08-02T22:17:50.713Z,100602.06
2022-08-02T22:20:19.901Z,100607.63
2022-08-02T22:22:52.626Z,100605.41
2022-08-02T22:25:27.049Z,100606.88
2022-08-02T22:28:35.652Z,100605.94
2022-08-02T22:30:55.340Z,100598.44
2022-08-02T22:33:47.082Z,100603.53
2022-08-02T22:36:29.759Z,100610.44
2022-08-02T22:38:57.978Z,100611.38
2022-08-02T22:41:25.698Z,100609.84
2022-08-02T22:44:13.554Z,100610.06
2022-08-02T22:46:42.490Z,100623.53
2022-08-02T22:49:10.120Z,100617.78
2022-08-02T22:51:57.925Z,100617.56
2022-08-02T22:54:25.666Z,100628.72
2022-08-02T22:56:53.356Z,100622.25
2022-08-02T22:59:03.435Z,100600.19
2022-08-02T22:59:39.220Z,100625.81
2022-08-02T23:02:08.710Z,100630.69
2022-08-02T23:04:37.665Z,100627.09
2022-08-02T23:07:06.117Z,100634.94
2022-08-02T23:09:33.826Z,100638.16
2022-08-02T23:12:02.094Z,100625.53
2022-08-02T23:14:30.617Z,100629.03
2022-08-02T23:17:16.792Z,100632.72
2022-08-02T23:19:50.624Z,100634.06
2022-08-02T23:22:29.400Z,100637.06
2022-08-02T23:25:00.877Z,100633.06
2022-08-02T23:27:29.725Z,100628.03
2022-08-02T23:29:57.464Z,100624.88
2022-08-02T23:32:26.092Z,100628.28
2022-08-02T23:34:58.058Z,100628.38
2022-08-02T23:37:26.486Z,100620.09
2022-08-02T23:39:54.192Z,100620.41
2022-08-02T23:42:23.463Z,100623.97
2022-08-02T23:44:51.891Z,100622.75
2022-08-02T23:47:20.125Z,100618.00
2022-08-02T23:49:48.068Z,100623.75
2022-08-02T23:52:15.964Z,100622.84
2022-08-02T23:54:43.681Z,100617.78
2022-08-02T23:57:20.847Z,100627.19
2022-08-02T23:59:51.246Z,100618.66
